sensor_id;sensor_type;location;lat;lon;timestamp;pressure;altitude;pressure_sealevel;temperature;humidity
6216;BME280;3141;49.234;9.326;2022-08-03T00:00:33;99688.75;;;21.81;54.98
6216;BME280;3141;49.234;9.326;2022-08-03T00:01:16;99685.69;;;21.77;55.24
6216;BME280;3141;49.234;9.326;2022-08-03T00:01:59;99686.34;;;21.73;55.24
6216;BME280;3141;49.234;9.326;2022-08-03T00:02:42;99683.50;;;21.68;55.31
6216;BME280;3141;49.234;9.326;2022-08-03T00:03:25;99688.16;;;21.61;55.79
6216;BME280;3141;49.234;9.326;2022-08-03T00:04:08;99691.66;;;21.61;56.08
6216;BME280;3141;49.234;9.326;2022-08-03T00:04:51;99685.38;;;21.67;56.11
6216;BME280;3141;49.234;9.326;2022-08-03T00:05:33;99689.94;;;21.67;55.76
6216;BME280;3141;49.234;9.326;2022-08-03T00:06:16;99689.56;;;21.63;56.14
6216;BME280;3141;49.234;9.326;2022-08-03T00:06:59;99691.22;;;21.64;55.84
6216;BME280;3141;49.234;9.326;2022-08-03T00:07:41;99686.09;;;21.74;55.89
6216;BME280;3141;49.234;9.326;2022-08-03T00:08:23;99689.47;;;21.70;55.66
6216;BME280;3141;49.234;9.326;2022-08-03T00:09:06;99693.81;;;21.71;55.58
6216;BME280;3141;49.234;9.326;2022-08-03T00:09:48;99688.06;;;21.67;55.80
6216;BME280;3141;49.234;9.326;2022-08-03T00:10:31;99694.03;;;21.69;55.74
6216;BME280;3141;49.234;9.326;2022-08-03T00:11:13;99684.56;;;21.67;55.70
6216;BME280;3141;49.234;9.326;2022-08-03T00:11:56;99693.44;;;21.67;55.75
6216;BME280;3141;49.234;9.326;2022-08-03T00:12:38;99693.09;;;21.64;55.88
6216;BME280;3141;49.234;9.326;2022-08-03T00:13:20;99687.53;;;21.59;56.06
6216;BME280;3141;49.234;9.326;2022-08-03T00:14:04;99690.41;;;21.64;55.89
6216;BME280;3141;49.234;9.326;2022-08-03T00:14:47;99689.13;;;21.66;55.77
6216;BME280;3141;49.234;9.326;2022-08-03T00:15:29;99681.72;;;21.62;55.83
6216;BME280;3141;49.234;9.326;2022-08-03T00:16:11;99683.81;;;21.60;55.95
6216;BME280;3141;49.234;9.326;2022-08-03T00:16:54;99692.56;;;21.55;56.00
6216;BME280;3141;49.234;9.326;2022-08-03T00:17:36;99686.38;;;21.55;56.25
6216;BME280;3141;49.234;9.326;2022-08-03T00:18:19;99681.00;;;21.55;56.02
6216;BME280;3141;49.234;9.326;2022-08-03T00:19:01;99683.69;;;21.55;56.05
6216;BME280;3141;49.234;9.326;2022-08-03T00:19:43;99680.53;;;21.40;56.69
6216;BME280;3141;49.234;9.326;2022-08-03T00:20:26;99684.44;;;21.44;56.45
6216;BME280;3141;49.234;9.326;2022-08-03T00:21:08;99681.59;;;21.39;56.70
6216;BME280;3141;49.234;9.326;2022-08-03T00:21:51;99682.19;;;21.41;56.67
6216;BME280;3141;49.234;9.326;2022-08-03T00:22:34;99680.72;;;21.45;56.56
6216;BME280;3141;49.234;9.326;2022-08-03T00:23:16;99683.47;;;21.38;56.92
6216;BME280;3141;49.234;9.326;2022-08-03T00:23:58;99681.28;;;21.47;56.65
6216;BME280;3141;49.234;9.326;2022-08-03T00:24:41;99688.59;;;21.40;56.72
6216;BME280;3141;49.234;9.326;2022-08-03T00:25:23;99684.28;;;21.39;56.73
6216;BME280;3141;49.234;9.326;2022-08-03T00:26:05;99685.34;;;21.38;56.73
6216;BME280;3141;49.234;9.326;2022-08-03T00:26:48;99678.22;;;21.43;56.72
6216;BME280;3141;49.234;9.326;2022-08-03T00:27:30;99683.22;;;21.40;56.79
6216;BME280;3141;49.234;9.326;2022-08-03T00:28:12;99684.16;;;21.34;56.85
6216;BME280;3141;49.234;9.326;2022-08-03T00:28:55;99682.50;;;21.33;57.03
6216;BME280;3141;49.234;9.326;2022-08-03T00:29:37;99687.66;;;21.34;56.80
6216;BME280;3141;49.234;9.326;2022-08-03T00:30:19;99682.56;;;21.26;57.25
6216;BME280;3141;49.234;9.326;2022-08-03T00:31:02;99673.31;;;21.22;57.21
6216;BME280;3141;49.234;9.326;2022-08-03T00:31:44;99682.34;;;21.28;57.09
6216;BME280;3141;49.234;9.326;2022-08-03T00:32:26;99684.16;;;21.34;57.00
6216;BME280;3141;49.234;9.326;2022-08-03T00:33:08;99684.16;;;21.34;56.86
6216;BME280;3141;49.234;9.326;2022-08-03T00:33:51;99684.59;;;21.31;57.09
6216;BME280;3141;49.234;9.326;2022-08-03T00:34:34;99676.16;;;21.27;57.23
6216;BME280;3141;49.234;9.326;2022-08-03T00:35:16;99677.88;;;21.22;57.34
6216;BME280;3141;49.234;9.326;2022-08-03T00:35:58;99684.00;;;21.29;57.31
6216;BME280;3141;49.234;9.326;2022-08-03T00:36:41;99674.13;;;21.23;57.37
6216;BME280;3141;49.234;9.326;2022-08-03T00:37:23;99674.97;;;21.23;57.48
6216;BME280;3141;49.234;9.326;2022-08-03T00:38:05;99675.94;;;21.29;57.15
6216;BME280;3141;49.234;9.326;2022-08-03T00:38:48;99673.09;;;21.24;57.01
6216;BME280;3141;49.234;9.326;2022-08-03T00:39:30;99686.09;;;21.27;56.73
6216;BME280;3141;49.234;9.326;2022-08-03T00:40:14;99667.50;;;21.25;56.91
6216;BME280;3141;49.234;9.326;2022-08-03T00:40:56;99675.94;;;21.29;56.73
6216;BME280;3141;49.234;9.326;2022-08-03T00:41:39;99670.56;;;21.29;56.79
6216;BME280;3141;49.234;9.326;2022-08-03T00:42:21;99678.63;;;21.29;56.63
6216;BME280;3141;49.234;9.326;2022-08-03T00:43:05;99669.94;;;21.27;56.51
6216;BME280;3141;49.234;9.326;2022-08-03T00:43:48;99671.44;;;21.23;56.50
6216;BME280;3141;49.234;9.326;2022-08-03T00:44:30;99668.06;;;21.09;56.96
6216;BME280;3141;49.234;9.326;2022-08-03T00:45:13;99672.19;;;21.12;56.94
6216;BME280;3141;49.234;9.326;2022-08-03T00:45:55;99669.50;;;21.12;56.93
6216;BME280;3141;49.234;9.326;2022-08-03T00:46:38;99671.75;;;21.15;56.68
6216;BME280;3141;49.234;9.326;2022-08-03T00:47:20;99669.97;;;21.09;56.58
6216;BME280;3141;49.234;9.326;2022-08-03T00:48:03;99675.16;;;21.04;56.74
6216;BME280;3141;49.234;9.326;2022-08-03T00:48:49;99671.91;;;21.02;56.62
6216;BME280;3141;49.234;9.326;2022-08-03T00:49:31;99669.22;;;21.02;56.72
6216;BME280;3141;49.234;9.326;2022-08-03T00:50:15;99672.84;;;21.07;56.53
6216;BME280;3141;49.234;9.326;2022-08-03T00:50:58;99669.59;;;21.05;56.58
6216;BME280;3141;49.234;9.326;2022-08-03T00:51:40;99666.22;;;21.10;56.56
6216;BME280;3141;49.234;9.326;2022-08-03T00:52:22;99666.69;;;21.07;56.59
6216;BME280;3141;49.234;9.326;2022-08-03T00:53:05;99669.13;;;21.08;56.64
6216;BME280;3141;49.234;9.326;2022-08-03T00:53:48;99666.28;;;21.03;56.70
6216;BME280;3141;49.234;9.326;2022-08-03T00:54:32;99667.69;;;21.06;56.82
6216;BME280;3141;49.234;9.326;2022-08-03T00:55:15;99675.34;;;21.09;56.60
6216;BME280;3141;49.234;9.326;2022-08-03T00:55:57;99664.59;;;21.09;56.56
6216;BME280;3141;49.234;9.326;2022-08-03T00:56:41;99668.31;;;21.08;56.62
6216;BME280;3141;49.234;9.326;2022-08-03T00:57:24;99662.56;;;21.04;56.88
6216;BME280;3141;49.234;9.326;2022-08-03T00:58:07;99666.16;;;20.92;57.15
6216;BME280;3141;49.234;9.326;2022-08-03T00:58:50;99673.81;;;20.95;57.07
6216;BME280;3141;49.234;9.326;2022-08-03T00:59:33;99679.59;;;20.92;57.03
6216;BME280;3141;49.234;9.326;2022-08-03T01:00:18;99675.97;;;20.86;57.10
6216;BME280;3141;49.234;9.326;2022-08-03T01:01:01;99679.59;;;20.98;56.81
6216;BME280;3141;49.234;9.326;2022-08-03T01:01:45;99670.00;;;21.02;56.60
6216;BME280;3141;49.234;9.326;2022-08-03T01:02:28;99682.47;;;20.97;56.88
6216;BME280;3141;49.234;9.326;2022-08-03T01:03:10;99677.13;;;20.90;56.98
6216;BME280;3141;49.234;9.326;2022-08-03T01:03:53;99677.59;;;20.87;56.94
6216;BME280;3141;49.234;9.326;2022-08-03T01:04:35;99674.13;;;20.80;56.95
6216;BME280;3141;49.234;9.326;2022-08-03T01:05:18;99681.97;;;20.82;56.92
6216;BME280;3141;49.234;9.326;2022-08-03T01:06:11;99673.31;;;20.80;57.35
6216;BME280;3141;49.234;9.326;2022-08-03T01:08:07;99670.97;;;20.65;58.38
6216;BME280;3141;49.234;9.326;2022-08-03T01:10:04;99683.13;;;20.67;58.57
6216;BME280;3141;49.234;9.326;2022-08-03T01:11:49;99676.50;;;20.45;59.51
6216;BME280;3141;49.234;9.326;2022-08-03T01:13:59;99669.50;;;20.44;60.04
6216;BME280;3141;49.234;9.326;2022-08-03T01:15:18;99676.03;;;20.55;59.78
6216;BME280;3141;49.234;9.326;2022-08-03T01:16:09;99676.47;;;20.52;60.01
6216;BME280;3141;49.234;9.326;2022-08-03T01:16:58;99675.22;;;20.54;59.76
6216;BME280;3141;49.234;9.326;2022-08-03T01:17:51;99672.22;;;20.62;59.82
6216;BME280;3141;49.234;9.326;2022-08-03T01:18:44;99677.59;;;20.62;59.78
6216;BME280;3141;49.234;9.326;2022-08-03T01:20:55;99676.19;;;20.60;60.01
6216;BME280;3141;49.234;9.326;2022-08-03T01:22:03;99683.13;;;20.67;60.15
6216;BME280;3141;49.234;9.326;2022-08-03T01:24:01;99677.50;;;20.51;60.43
6216;BME280;3141;49.234;9.326;2022-08-03T01:27:08;99674.06;;;20.68;60.34
6216;BME280;3141;49.234;9.326;2022-08-03T01:29:00;99667.47;;;20.64;60.03
6216;BME280;3141;49.234;9.326;2022-08-03T01:30:04;99675.38;;;20.59;60.02
6216;BME280;3141;49.234;9.326;2022-08-03T01:30:47;99653.75;;;20.73;59.57
6216;BME280;3141;49.234;9.326;2022-08-03T01:32:01;99666.00;;;20.68;60.17
6216;BME280;3141;49.234;9.326;2022-08-03T01:33:51;99658.19;;;20.60;60.06
6216;BME280;3141;49.234;9.326;2022-08-03T01:34:44;99660.47;;;20.63;59.97
6216;BME280;3141;49.234;9.326;2022-08-03T01:35:32;99659.63;;;20.63;59.78
6216;BME280;3141;49.234;9.326;2022-08-03T01:36:22;99656.88;;;20.69;59.54
6216;BME280;3141;49.234;9.326;2022-08-03T01:37:08;99661.00;;;20.72;59.42
6216;BME280;3141;49.234;9.326;2022-08-03T01:37:55;99663.09;;;20.70;59.41
6216;BME280;3141;49.234;9.326;2022-08-03T01:38:55;99656.72;;;20.64;59.60
6216;BME280;3141;49.234;9.326;2022-08-03T01:39:39;99655.47;;;20.67;59.57
6216;BME280;3141;49.234;9.326;2022-08-03T01:40:24;99655.25;;;20.68;59.45
6216;BME280;3141;49.234;9.326;2022-08-03T01:41:18;99651.06;;;20.73;59.36
6216;BME280;3141;49.234;9.326;2022-08-03T01:42:03;99655.47;;;20.67;59.45
6216;BME280;3141;49.234;9.326;2022-08-03T01:42:49;99657.56;;;20.65;59.58
6216;BME280;3141;49.234;9.326;2022-08-03T01:43:33;99650.31;;;20.65;59.51
6216;BME280;3141;49.234;9.326;2022-08-03T01:44:16;99651.72;;;20.68;59.17
6216;BME280;3141;49.234;9.326;2022-08-03T01:45:00;99654.56;;;20.73;58.87
6216;BME280;3141;49.234;9.326;2022-08-03T01:45:43;99645.09;;;20.71;58.91
6216;BME280;3141;49.234;9.326;2022-08-03T01:46:27;99655.09;;;20.63;59.15
6216;BME280;3141;49.234;9.326;2022-08-03T01:47:10;99655.69;;;20.65;59.09
6216;BME280;3141;49.234;9.326;2022-08-03T01:47:54;99646.28;;;20.75;58.89
6216;BME280;3141;49.234;9.326;2022-08-03T01:48:38;99653.75;;;20.73;58.89
6216;BME280;3141;49.234;9.326;2022-08-03T01:49:21;99645.53;;;20.67;59.08
6216;BME280;3141;49.234;9.326;2022-08-03T01:50:04;99652.41;;;20.63;59.20
6216;BME280;3141;49.234;9.326;2022-08-03T01:50:49;99649.03;;;20.68;59.01
6216;BME280;3141;49.234;9.326;2022-08-03T01:51:32;99656.66;;;20.71;58.55
6216;BME280;3141;49.234;9.326;2022-08-03T01:52:19;99647.63;;;20.65;59.04
6216;BME280;3141;49.234;9.326;2022-08-03T01:53:03;99651.13;;;20.66;59.19
6216;BME280;3141;49.234;9.326;2022-08-03T01:53:48;99652.81;;;20.60;59.22
6216;BME280;3141;49.234;9.326;2022-08-03T01:54:37;99655.72;;;20.59;59.38
6216;BME280;3141;49.234;9.326;2022-08-03T01:55:22;99650.59;;;20.57;59.22
6216;BME280;3141;49.234;9.326;2022-08-03T01:56:06;99645.22;;;20.57;59.14
6216;BME280;3141;49.234;9.326;2022-08-03T01:56:50;99651.72;;;20.50;59.19
6216;BME280;3141;49.234;9.326;2022-08-03T01:57:34;99643.81;;;20.55;58.84
6216;BME280;3141;49.234;9.326;2022-08-03T01:58:17;99643.59;;;20.56;58.51
6216;BME280;3141;49.234;9.326;2022-08-03T01:59:01;99645.06;;;20.52;58.76
6216;BME280;3141;49.234;9.326;2022-08-03T01:59:46;99641.59;;;20.45;58.88
6216;BME280;3141;49.234;9.326;2022-08-03T02:00:30;99645.81;;;20.35;59.38
6216;BME280;3141;49.234;9.326;2022-08-03T02:01:14;99648.13;;;20.31;59.37
6216;BME280;3141;49.234;9.326;2022-08-03T02:01:58;99640.91;;;20.32;59.23
6216;BME280;3141;49.234;9.326;2022-08-03T02:02:42;99641.72;;;20.32;59.36
6216;BME280;3141;49.234;9.326;2022-08-03T02:03:25;99642.34;;;20.34;59.39
6216;BME280;3141;49.234;9.326;2022-08-03T02:04:11;99638.91;;;20.21;59.96
6216;BME280;3141;49.234;9.326;2022-08-03T02:04:55;99638.28;;;20.25;59.82
6216;BME280;3141;49.234;9.326;2022-08-03T02:05:39;99635.59;;;20.25;59.86
6216;BME280;3141;49.234;9.326;2022-08-03T02:06:23;99634.16;;;20.23;59.93
6216;BME280;3141;49.234;9.326;2022-08-03T02:07:07;99635.38;;;20.27;60.00
6216;BME280;3141;49.234;9.326;2022-08-03T02:07:51;99640.97;;;20.25;59.83
6216;BME280;3141;49.234;9.326;2022-08-03T02:08:34;99639.56;;;20.16;60.41
6216;BME280;3141;49.234;9.326;2022-08-03T02:09:19;99631.56;;;20.10;60.58
6216;BME280;3141;49.234;9.326;2022-08-03T02:10:05;99630.28;;;20.12;60.88
6216;BME280;3141;49.234;9.326;2022-08-03T02:10:48;99635.75;;;19.99;61.63
6216;BME280;3141;49.234;9.326;2022-08-03T02:11:33;99634.53;;;19.95;61.96
6216;BME280;3141;49.234;9.326;2022-08-03T02:12:16;99635.19;;;19.91;62.04
6216;BME280;3141;49.234;9.326;2022-08-03T02:13:00;99635.75;;;19.99;62.39
6216;BME280;3141;49.234;9.326;2022-08-03T02:13:44;99635.47;;;20.07;61.93
6216;BME280;3141;49.234;9.326;2022-08-03T02:14:28;99637.78;;;20.04;62.10
6216;BME280;3141;49.234;9.326;2022-08-03T02:15:14;99644.31;;;20.14;61.50
6216;BME280;3141;49.234;9.326;2022-08-03T02:15:57;99629.66;;;20.17;61.66
6216;BME280;3141;49.234;9.326;2022-08-03T02:16:42;99633.78;;;20.13;61.88
6216;BME280;3141;49.234;9.326;2022-08-03T02:17:26;99641.47;;;20.09;61.51
6216;BME280;3141;49.234;9.326;2022-08-03T02:18:09;99636.97;;;20.03;61.82
6216;BME280;3141;49.234;9.326;2022-08-03T02:18:53;99634.13;;;19.98;61.96
6216;BME280;3141;49.234;9.326;2022-08-03T02:19:36;99633.13;;;19.93;62.54
6216;BME280;3141;49.234;9.326;2022-08-03T02:20:20;99638.16;;;19.83;63.04
6216;BME280;3141;49.234;9.326;2022-08-03T02:21:02;99641.69;;;19.77;63.40
6216;BME280;3141;49.234;9.326;2022-08-03T02:21:46;99635.09;;;19.73;63.61
6216;BME280;3141;49.234;9.326;2022-08-03T02:22:32;99632.84;;;19.70;63.69
6216;BME280;3141;49.234;9.326;2022-08-03T02:23:15;99638.22;;;19.70;63.30
6216;BME280;3141;49.234;9.326;2022-08-03T02:23:57;99634.28;;;19.72;63.62
6216;BME280;3141;49.234;9.326;2022-08-03T02:24:40;99633.84;;;19.75;63.50
6216;BME280;3141;49.234;9.326;2022-08-03T02:25:22;99630.91;;;19.83;62.76
6216;BME280;3141;49.234;9.326;2022-08-03T02:26:08;99632.56;;;19.84;62.67
6216;BME280;3141;49.234;9.326;2022-08-03T02:26:54;99639.50;;;19.92;62.46
6216;BME280;3141;49.234;9.326;2022-08-03T02:27:42;99638.66;;;19.98;61.99
6216;BME280;3141;49.234;9.326;2022-08-03T02:28:39;99645.59;;;20.05;62.18
6216;BME280;3141;49.234;9.326;2022-08-03T02:29:25;99633.19;;;20.11;61.89
6216;BME280;3141;49.234;9.326;2022-08-03T02:30:09;99641.50;;;20.03;61.83
6216;BME280;3141;49.234;9.326;2022-08-03T02:30:54;99641.72;;;20.01;61.60
6216;BME280;3141;49.234;9.326;2022-08-03T02:31:38;99645.59;;;20.05;61.70
6216;BME280;3141;49.234;9.326;2022-08-03T02:32:28;99643.13;;;20.04;61.97
6216;BME280;3141;49.234;9.326;2022-08-03T02:33:17;99645.81;;;20.04;62.06
6216;BME280;3141;49.234;9.326;2022-08-03T02:34:03;99646.38;;;20.12;61.59
6216;BME280;3141;49.234;9.326;2022-08-03T02:34:50;99639.38;;;20.11;61.38
6216;BME280;3141;49.234;9.326;2022-08-03T02:35:34;99642.06;;;20.11;61.21
6216;BME280;3141;49.234;9.326;2022-08-03T02:36:19;99642.44;;;20.15;60.99
6216;BME280;3141;49.234;9.326;2022-08-03T02:37:03;99645.81;;;20.10;61.43
6216;BME280;3141;49.234;9.326;2022-08-03T02:37:53;99642.91;;;20.05;61.09
6216;BME280;3141;49.234;9.326;2022-08-03T02:38:38;99640.63;;;20.09;61.44
6216;BME280;3141;49.234;9.326;2022-08-03T02:39:23;99637.09;;;20.15;61.11
6216;BME280;3141;49.234;9.326;2022-08-03T02:40:08;99639.22;;;20.06;61.46
6216;BME280;3141;49.234;9.326;2022-08-03T02:40:54;99642.50;;;20.08;61.52
6216;BME280;3141;49.234;9.326;2022-08-03T02:41:42;99638.50;;;19.93;62.25
6216;BME280;3141;49.234;9.326;2022-08-03T02:42:27;99634.63;;;19.82;62.95
6216;BME280;3141;49.234;9.326;2022-08-03T02:43:16;99639.16;;;19.82;63.03
6216;BME280;3141;49.234;9.326;2022-08-03T02:44:01;99641.22;;;19.86;62.61
6216;BME280;3141;49.234;9.326;2022-08-03T02:44:47;99634.19;;;19.85;62.82
6216;BME280;3141;49.234;9.326;2022-08-03T02:45:31;99639.16;;;19.82;63.02
6216;BME280;3141;49.234;9.326;2022-08-03T02:46:18;99636.53;;;19.75;63.41
6216;BME280;3141;49.234;9.326;2022-08-03T02:47:04;99638.94;;;19.83;62.97
6216;BME280;3141;49.234;9.326;2022-08-03T02:47:51;99637.94;;;19.84;63.22
6216;BME280;3141;49.234;9.326;2022-08-03T02:48:37;99639.50;;;19.98;62.69
6216;BME280;3141;49.234;9.326;2022-08-03T02:49:22;99635.53;;;20.01;62.56
6216;BME280;3141;49.234;9.326;2022-08-03T02:50:08;99643.97;;;20.04;62.47
6216;BME280;3141;49.234;9.326;2022-08-03T02:50:52;99637.81;;;19.97;63.01
6216;BME280;3141;49.234;9.326;2022-08-03T02:51:37;99636.53;;;20.06;62.49
6216;BME280;3141;49.234;9.326;2022-08-03T02:52:23;99640.69;;;20.02;62.68
6216;BME280;3141;49.234;9.326;2022-08-03T02:53:08;99635.97;;;19.98;62.82
6216;BME280;3141;49.234;9.326;2022-08-03T02:53:53;99644.25;;;19.90;63.23
6216;BME280;3141;49.234;9.326;2022-08-03T02:54:37;99634.91;;;19.99;63.02
6216;BME280;3141;49.234;9.326;2022-08-03T02:55:21;99645.88;;;19.97;63.18
6216;BME280;3141;49.234;9.326;2022-08-03T02:56:04;99645.59;;;20.05;62.92
6216;BME280;3141;49.234;9.326;2022-08-03T02:56:49;99641.91;;;20.06;62.93
6216;BME280;3141;49.234;9.326;2022-08-03T02:57:33;99641.91;;;20.06;63.02
6216;BME280;3141;49.234;9.326;2022-08-03T02:58:18;99641.69;;;20.08;63.21
6216;BME280;3141;49.234;9.326;2022-08-03T02:59:05;99639.22;;;20.06;63.13
6216;BME280;3141;49.234;9.326;2022-08-03T02:59:48;99641.22;;;20.11;63.90
6216;BME280;3141;49.234;9.326;2022-08-03T03:00:32;99649.06;;;20.12;64.36
6216;BME280;3141;49.234;9.326;2022-08-03T03:01:15;99639.00;;;20.08;65.09
6216;BME280;3141;49.234;9.326;2022-08-03T03:02:01;99642.28;;;20.10;65.34
6216;BME280;3141;49.234;9.326;2022-08-03T03:02:44;99640.06;;;20.00;66.38
6216;BME280;3141;49.234;9.326;2022-08-03T03:03:27;99639.03;;;20.01;66.20
6216;BME280;3141;49.234;9.326;2022-08-03T03:04:10;99645.25;;;20.02;66.42
6216;BME280;3141;49.234;9.326;2022-08-03T03:04:54;99641.34;;;19.98;66.57
6216;BME280;3141;49.234;9.326;2022-08-03T03:05:37;99637.94;;;19.84;66.95
6216;BME280;3141;49.234;9.326;2022-08-03T03:06:23;99633.16;;;19.86;66.94
6216;BME280;3141;49.234;9.326;2022-08-03T03:07:06;99641.38;;;19.91;66.90
6216;BME280;3141;49.234;9.326;2022-08-03T03:07:48;99643.63;;;19.94;66.84
6216;BME280;3141;49.234;9.326;2022-08-03T03:08:31;99642.59;;;19.95;66.90
6216;BME280;3141;49.234;9.326;2022-08-03T03:09:15;99637.00;;;19.97;66.89
6216;BME280;3141;49.234;9.326;2022-08-03T03:09:58;99642.16;;;19.98;66.87
6216;BME280;3141;49.234;9.326;2022-08-03T03:10:42;99643.41;;;19.96;66.93
6216;BME280;3141;49.234;9.326;2022-08-03T03:11:25;99641.78;;;19.95;67.12
6216;BME280;3141;49.234;9.326;2022-08-03T03:12:09;99641.16;;;19.93;67.15
6216;BME280;3141;49.234;9.326;2022-08-03T03:12:56;99639.28;;;19.93;67.36
6216;BME280;3141;49.234;9.326;2022-08-03T03:13:41;99644.47;;;19.95;67.35
6216;BME280;3141;49.234;9.326;2022-08-03T03:14:25;99637.66;;;19.92;67.35
6216;BME280;3141;49.234;9.326;2022-08-03T03:15:09;99639.91;;;19.95;67.44
6216;BME280;3141;49.234;9.326;2022-08-03T03:15:52;99640.72;;;19.96;67.76
6216;BME280;3141;49.234;9.326;2022-08-03T03:16:35;99643.19;;;19.97;67.44
6216;BME280;3141;49.234;9.326;2022-08-03T03:17:19;99644.41;;;20.01;66.69
6216;BME280;3141;49.234;9.326;2022-08-03T03:18:02;99642.16;;;19.98;66.94
6216;BME280;3141;49.234;9.326;2022-08-03T03:18:46;99636.25;;;19.83;67.83
6216;BME280;3141;49.234;9.326;2022-08-03T03:19:32;99644.41;;;19.70;68.41
6216;BME280;3141;49.234;9.326;2022-08-03T03:20:16;99640.03;;;19.76;67.98
6216;BME280;3141;49.234;9.326;2022-08-03T03:21:00;99638.53;;;19.86;66.32
6216;BME280;3141;49.234;9.326;2022-08-03T03:21:44;99643.13;;;19.79;64.82
6216;BME280;3141;49.234;9.326;2022-08-03T03:22:26;99636.78;;;19.67;64.87
6216;BME280;3141;49.234;9.326;2022-08-03T03:23:10;99636.63;;;19.62;64.54
6216;BME280;3141;49.234;9.326;2022-08-03T03:23:53;99638.91;;;19.52;65.17
6216;BME280;3141;49.234;9.326;2022-08-03T03:24:36;99639.09;;;19.57;64.77
6216;BME280;3141;49.234;9.326;2022-08-03T03:25:20;99646.13;;;19.58;64.57
6216;BME280;3141;49.234;9.326;2022-08-03T03:26:03;99644.66;;;19.62;64.14
6216;BME280;3141;49.234;9.326;2022-08-03T03:26:46;99637.47;;;19.56;64.21
6216;BME280;3141;49.234;9.326;2022-08-03T03:27:29;99635.59;;;19.57;64.21
6216;BME280;3141;49.234;9.326;2022-08-03T03:28:12;99632.53;;;19.53;64.65
6216;BME280;3141;49.234;9.326;2022-08-03T03:28:55;99636.97;;;19.66;63.88
6216;BME280;3141;49.234;9.326;2022-08-03T03:29:38;99637.19;;;19.64;63.75
6216;BME280;3141;49.234;9.326;2022-08-03T03:30:20;99638.06;;;19.58;64.23
6216;BME280;3141;49.234;9.326;2022-08-03T03:31:04;99634.16;;;19.54;64.11
6216;BME280;3141;49.234;9.326;2022-08-03T03:31:47;99636.50;;;19.44;64.33
6216;BME280;3141;49.234;9.326;2022-08-03T03:32:30;99635.63;;;19.50;64.20
6216;BME280;3141;49.234;9.326;2022-08-03T03:33:12;99634.81;;;19.49;63.96
6216;BME280;3141;49.234;9.326;2022-08-03T03:33:56;99636.84;;;19.54;63.85
6216;BME280;3141;49.234;9.326;2022-08-03T03:34:39;99642.88;;;19.49;63.79
6216;BME280;3141;49.234;9.326;2022-08-03T03:35:24;99631.38;;;19.36;64.28
6216;BME280;3141;49.234;9.326;2022-08-03T03:36:07;99636.72;;;19.42;64.11
6216;BME280;3141;49.234;9.326;2022-08-03T03:36:49;99637.72;;;19.48;63.91
6216;BME280;3141;49.234;9.326;2022-08-03T03:37:32;99636.41;;;19.57;63.50
6216;BME280;3141;49.234;9.326;2022-08-03T03:38:14;99639.72;;;19.59;63.46
6216;BME280;3141;49.234;9.326;2022-08-03T03:38:57;99641.78;;;19.57;63.34
6216;BME280;3141;49.234;9.326;2022-08-03T03:39:39;99634.44;;;19.46;64.01
6216;BME280;3141;49.234;9.326;2022-08-03T03:40:21;99640.63;;;19.40;64.27
6216;BME280;3141;49.234;9.326;2022-08-03T03:41:04;99636.94;;;19.41;64.11
6216;BME280;3141;49.234;9.326;2022-08-03T03:41:47;99640.53;;;19.60;63.59
6216;BME280;3141;49.234;9.326;2022-08-03T03:42:30;99638.91;;;19.59;63.55
6216;BME280;3141;49.234;9.326;2022-08-03T03:43:13;99633.94;;;19.62;63.33
6216;BME280;3141;49.234;9.326;2022-08-03T03:43:56;99633.94;;;19.62;63.17
6216;BME280;3141;49.234;9.326;2022-08-03T03:44:38;99634.16;;;19.54;63.53
6216;BME280;3141;49.234;9.326;2022-08-03T03:45:22;99635.84;;;19.55;63.40
6216;BME280;3141;49.234;9.326;2022-08-03T03:46:05;99636.00;;;19.53;63.60
6216;BME280;3141;49.234;9.326;2022-08-03T03:46:47;99637.28;;;19.51;63.78
6216;BME280;3141;49.234;9.326;2022-08-03T03:47:29;99641.59;;;19.52;63.64
6216;BME280;3141;49.234;9.326;2022-08-03T03:48:12;99638.34;;;19.43;64.27
6216;BME280;3141;49.234;9.326;2022-08-03T03:48:54;99638.34;;;19.43;64.01
6216;BME280;3141;49.234;9.326;2022-08-03T03:49:37;99636.72;;;19.29;64.94
6216;BME280;3141;49.234;9.326;2022-08-03T03:50:19;99638.81;;;19.27;64.83
6216;BME280;3141;49.234;9.326;2022-08-03T03:51:03;99631.56;;;19.28;65.00
6216;BME280;3141;49.234;9.326;2022-08-03T03:51:45;99637.38;;;19.25;65.28
6216;BME280;3141;49.234;9.326;2022-08-03T03:52:28;99631.19;;;19.31;64.87
6216;BME280;3141;49.234;9.326;2022-08-03T03:53:11;99637.75;;;19.35;64.51
6216;BME280;3141;49.234;9.326;2022-08-03T03:53:59;99635.13;;;19.22;65.05
6216;BME280;3141;49.234;9.326;2022-08-03T03:54:43;99641.09;;;19.24;65.21
6216;BME280;3141;49.234;9.326;2022-08-03T03:55:26;99636.34;;;19.19;65.81
6216;BME280;3141;49.234;9.326;2022-08-03T03:56:08;99644.34;;;19.26;65.55
6216;BME280;3141;49.234;9.326;2022-08-03T03:56:50;99639.63;;;19.28;65.49
6216;BME280;3141;49.234;9.326;2022-08-03T03:57:33;99643.16;;;19.22;65.69
6216;BME280;3141;49.234;9.326;2022-08-03T03:58:15;99638.22;;;19.19;66.05
6216;BME280;3141;49.234;9.326;2022-08-03T03:58:58;99638.19;;;19.25;65.68
6216;BME280;3141;49.234;9.326;2022-08-03T03:59:41;99639.22;;;19.24;65.63
6216;BME280;3141;49.234;9.326;2022-08-03T04:00:23;99635.91;;;19.29;65.39
6216;BME280;3141;49.234;9.326;2022-08-03T04:01:06;99635.31;;;19.33;65.17
6216;BME280;3141;49.234;9.326;2022-08-03T04:01:49;99636.13;;;19.21;65.51
6216;BME280;3141;49.234;9.326;2022-08-03T04:02:33;99641.91;;;19.24;65.23
6216;BME280;3141;49.234;9.326;2022-08-03T04:03:15;99641.75;;;19.13;65.35
6216;BME280;3141;49.234;9.326;2022-08-03T04:03:58;99635.34;;;19.14;65.50
6216;BME280;3141;49.234;9.326;2022-08-03T04:05:00;99647.03;;;19.26;65.37
6216;BME280;3141;49.234;9.326;2022-08-03T04:06:01;99640.66;;;19.27;65.04
6216;BME280;3141;49.234;9.326;2022-08-03T04:07:02;99632.00;;;19.31;65.04
6216;BME280;3141;49.234;9.326;2022-08-03T04:08:06;99641.09;;;19.30;64.94
6216;BME280;3141;49.234;9.326;2022-08-03T04:09:09;99633.22;;;19.22;65.20
6216;BME280;3141;49.234;9.326;2022-08-03T04:10:21;99638.59;;;19.29;64.94
6216;BME280;3141;49.234;9.326;2022-08-03T04:11:48;99633.44;;;19.34;64.88
6216;BME280;3141;49.234;9.326;2022-08-03T04:12:31;99634.84;;;19.43;64.58
6216;BME280;3141;49.234;9.326;2022-08-03T04:13:16;99643.75;;;19.37;64.83
6216;BME280;3141;49.234;9.326;2022-08-03T04:15:06;99640.66;;;19.27;65.66
6216;BME280;3141;49.234;9.326;2022-08-03T04:15:50;99639.88;;;19.13;66.21
6216;BME280;3141;49.234;9.326;2022-08-03T04:16:36;99646.44;;;19.17;66.11
6216;BME280;3141;49.234;9.326;2022-08-03T04:17:20;99644.16;;;19.21;66.30